Portada
METAR-TAF:

METAR-TAF

Aeroports :

Adana, Turquia

latitud: 36-59N, longitud: 035-18E, altitud: 20 m

Observació

L'informe es va fer fa 33 minuts, a les 13:20 UTC
Vent 7 kt del Sud
Temperatura 20°C
Humitat 43%
Pressió 1009 hPa
Visibilitat 10 km o més
Núvols disperses a una alçada de 4000 ft

METAR: LTAF 301320Z 18007KT 9999 SCT040 20/07 Q1009 NOSIG RMK RWY23 19007KT 160V230

Hora: 16:53 (13:53 UTC)


TAF: manca

Observacions i pronòstics meteorològics de més de 4000 aeroports (METAR i TAF).

Les estacions disponibles són els punts grocs i vermells al mapa.

Posi el ratolí al punt desitjat per veure el nom de l'estació.

Feu clic per veure les observacions i els pronòstics meteorològics.

Per canviar el mapa: feu clic els botons verds amb una creu de color negre per apropar; al botó verd amb un guió per allunyar la imatge; o en les fletxes verdes per a mapes adjacents.


METAR-TAF: